Shelby, Ohio
Current Conditions -  °F | °C
As of 9:52 PM on Saturday 25 Oct 2014 (Local Time) from KMFD Reporting Station
Clear Clear  
Wind Chill: 57°   Ceiling: Unl
Heat Index: 57°   Visibility: 10mi
Dew Point: 36°   Wind: 9mph
Humidity: 45%   Direction: 270°W
Pressure: 29.86"   Gusts: NA
Location:  40.88°N, 82.66°W
Report Text: KMFD 260152Z 27008KT 10SM CLR 14/02 A2986 RMK AO2 SLP109 T01390022
Loading
Personal Weather Stations






























Interactive Weather Map
Tropical Storm Tracking
New forecast layout! Learn more

10-Day Weather Forecast

Advertisements
Track Severe Weather on mobile